createdAt,value
2022-10-18T00:00:07.948Z,26.25
2022-10-18T00:02:41.077Z,23.45
2022-10-18T00:05:11.612Z,28.20
2022-10-18T00:07:42.254Z,17.38
2022-10-18T00:10:13.216Z,17.35
2022-10-18T00:12:43.707Z,29.80
2022-10-18T00:15:14.362Z,21.55
2022-10-18T00:20:16.840Z,22.15
2022-10-18T00:22:47.609Z,18.73
2022-10-18T00:25:18.364Z,23.02
2022-10-18T00:27:48.951Z,21.95
2022-10-18T00:30:19.674Z,17.65
2022-10-18T00:32:50.102Z,16.75
2022-10-18T00:35:20.480Z,16.05
2022-10-18T00:37:50.794Z,16.70
2022-10-18T00:40:21.201Z,28.35
2022-10-18T00:42:52.175Z,15.23
2022-10-18T00:46:30.811Z,14.32
2022-10-18T00:49:05.481Z,16.55
2022-10-18T00:51:54.659Z,16.60
2022-10-18T00:54:26.236Z,17.45
2022-10-18T00:56:57.505Z,17.35
2022-10-18T00:59:28.975Z,18.33
2022-10-18T01:01:59.435Z,21.77
2022-10-18T01:04:30.410Z,32.03
2022-10-18T01:07:35.330Z,43.45
2022-10-18T01:10:19.392Z,47.63
2022-10-18T01:13:12.200Z,51.05
2022-10-18T01:16:19.146Z,51.03
2022-10-18T01:18:59.972Z,61.50
2022-10-18T01:22:03.661Z,59.78
2022-10-18T01:24:37.543Z,64.15
2022-10-18T01:27:16.182Z,60.42
2022-10-18T01:30:23.309Z,58.45
2022-10-18T01:32:59.634Z,56.92
2022-10-18T01:35:36.476Z,59.05
2022-10-18T01:38:13.655Z,59.90
2022-10-18T01:40:47.718Z,55.90
2022-10-18T01:43:20.635Z,56.97
2022-10-18T01:45:52.053Z,53.08
2022-10-18T01:48:22.647Z,54.22
2022-10-18T01:50:55.219Z,49.75
2022-10-18T01:53:33.960Z,51.58
2022-10-18T01:56:22.328Z,47.97
2022-10-18T01:59:15.296Z,50.22
2022-10-18T02:01:55.597Z,50.55
2022-10-18T02:04:43.983Z,39.75
2022-10-18T02:07:39.226Z,43.08
2022-10-18T02:10:23.919Z,46.15
2022-10-18T02:12:57.547Z,42.45
2022-10-18T02:15:50.669Z,35.75
2022-10-18T02:18:26.955Z,36.20
2022-10-18T02:21:00.256Z,35.03
2022-10-18T02:23:32.210Z,32.08
2022-10-18T02:28:33.414Z,29.88
2022-10-18T02:31:19.106Z,32.10
2022-10-18T02:33:59.504Z,30.52
2022-10-18T02:36:44.434Z,29.45
2022-10-18T02:39:37.082Z,28.30
2022-10-18T02:44:39.652Z,25.42
2022-10-18T02:47:12.015Z,28.52
2022-10-18T02:49:42.688Z,25.83
2022-10-18T02:52:13.612Z,27.50
2022-10-18T02:54:43.950Z,25.58
2022-10-18T02:57:14.294Z,24.73
2022-10-18T02:59:44.659Z,29.73
2022-10-18T03:02:15.156Z,25.98
2022-10-18T03:04:45.658Z,24.77
2022-10-18T03:07:16.032Z,26.40
2022-10-18T03:10:41.018Z,25.48
2022-10-18T03:13:11.444Z,24.35
2022-10-18T03:15:41.836Z,23.23
2022-10-18T03:18:12.537Z,22.63
2022-10-18T03:20:43.669Z,22.40
2022-10-18T03:23:14.064Z,22.83
2022-10-18T03:25:46.411Z,23.60
2022-10-18T03:28:17.114Z,22.10
2022-10-18T03:30:47.495Z,21.35
2022-10-18T03:33:17.932Z,20.23
2022-10-18T03:35:48.817Z,23.42
2022-10-18T03:38:19.600Z,22.38
2022-10-18T03:40:50.192Z,19.13
2022-10-18T03:43:20.614Z,21.17
2022-10-18T03:45:51.108Z,19.88
2022-10-18T03:48:21.492Z,19.45
2022-10-18T03:50:51.929Z,19.83
2022-10-18T03:53:22.431Z,18.08
2022-10-18T03:55:56.696Z,20.95
2022-10-18T03:58:27.233Z,19.90
2022-10-18T04:00:57.681Z,19.92
2022-10-18T04:03:28.475Z,18.88
2022-10-18T04:06:06.692Z,19.50
2022-10-18T04:08:38.045Z,19.45
2022-10-18T04:11:13.096Z,19.65
2022-10-18T04:13:43.536Z,21.90
2022-10-18T04:16:13.846Z,18.90
2022-10-18T04:18:44.793Z,21.45
2022-10-18T04:21:15.332Z,19.45
2022-10-18T04:23:45.979Z,18.60
2022-10-18T04:26:17.588Z,18.58
2022-10-18T04:28:48.996Z,19.35
2022-10-18T04:31:19.394Z,19.15
2022-10-18T04:33:50.133Z,19.40
2022-10-18T04:36:20.728Z,18.33
2022-10-18T04:38:51.110Z,21.08
2022-10-18T04:41:21.492Z,18.35
2022-10-18T04:43:53.106Z,19.58
2022-10-18T04:46:23.561Z,19.17
2022-10-18T04:48:54.015Z,18.42
2022-10-18T04:51:24.579Z,20.25
2022-10-18T04:53:54.947Z,19.63
2022-10-18T04:56:25.637Z,20.30
2022-10-18T04:58:56.057Z,18.25
2022-10-18T05:01:27.094Z,18.70
2022-10-18T05:03:57.858Z,17.63
2022-10-18T05:06:28.253Z,22.83
2022-10-18T05:08:58.674Z,17.67
2022-10-18T05:11:29.101Z,18.02
2022-10-18T05:13:59.498Z,19.08
2022-10-18T05:16:29.793Z,17.35
2022-10-18T05:19:00.382Z,18.25
2022-10-18T05:21:30.782Z,16.92
2022-10-18T05:24:01.295Z,15.70
2022-10-18T05:26:32.040Z,17.02
2022-10-18T05:29:02.648Z,18.77
2022-10-18T05:31:33.163Z,16.90
2022-10-18T05:34:03.773Z,16.42
2022-10-18T05:36:35.014Z,15.83
2022-10-18T05:39:06.389Z,16.95
2022-10-18T05:41:37.698Z,16.17
2022-10-18T05:44:08.409Z,14.60
2022-10-18T05:46:38.775Z,16.27
2022-10-18T05:49:09.111Z,15.40
2022-10-18T05:51:39.609Z,15.32
2022-10-18T05:54:15.631Z,15.33
2022-10-18T05:56:46.035Z,15.70
2022-10-18T05:59:16.430Z,14.40
2022-10-18T06:01:46.903Z,13.95
2022-10-18T06:04:19.089Z,14.30
2022-10-18T06:06:49.908Z,15.05
2022-10-18T06:09:20.495Z,15.32
2022-10-18T06:11:51.547Z,13.38
2022-10-18T06:14:21.974Z,15.50
2022-10-18T06:16:52.497Z,14.05
2022-10-18T06:19:23.145Z,15.55
2022-10-18T06:21:57.641Z,15.35
2022-10-18T06:24:28.715Z,13.95
2022-10-18T06:26:59.556Z,13.77
2022-10-18T06:29:30.071Z,13.48
2022-10-18T06:32:00.983Z,13.60
2022-10-18T06:34:31.700Z,14.13
2022-10-18T06:37:02.373Z,13.82
2022-10-18T06:39:32.719Z,17.23
2022-10-18T06:42:03.053Z,18.48
2022-10-18T06:44:37.267Z,14.23
2022-10-18T06:47:09.529Z,14.00
2022-10-18T06:49:39.843Z,13.65
2022-10-18T06:52:10.424Z,14.52
2022-10-18T06:54:41.580Z,13.65
2022-10-18T06:57:12.047Z,15.63
2022-10-18T06:59:42.610Z,14.60
2022-10-18T07:02:21.527Z,17.63
2022-10-18T07:04:52.065Z,13.52
2022-10-18T07:07:22.833Z,13.75
2022-10-18T07:09:53.272Z,13.38
2022-10-18T07:12:23.663Z,12.95
2022-10-18T07:14:54.320Z,13.25
2022-10-18T07:17:24.997Z,13.07
2022-10-18T07:19:56.003Z,14.45
2022-10-18T07:22:30.144Z,13.40
2022-10-18T07:25:01.241Z,15.35
2022-10-18T07:27:32.458Z,12.20
2022-10-18T07:30:02.961Z,12.20
2022-10-18T07:32:33.510Z,12.50
2022-10-18T07:35:04.422Z,15.52
2022-10-18T07:37:35.100Z,12.93
2022-10-18T07:40:06.323Z,12.30
2022-10-18T07:42:37.371Z,15.27
2022-10-18T07:45:09.649Z,12.70
2022-10-18T07:47:40.680Z,12.15
2022-10-18T07:52:41.720Z,13.05
2022-10-18T07:55:15.454Z,11.73
2022-10-18T07:57:46.007Z,12.10
2022-10-18T08:00:16.567Z,16.60
2022-10-18T08:02:46.990Z,11.57
2022-10-18T08:05:17.620Z,10.38
2022-10-18T08:07:48.595Z,23.23
2022-10-18T08:10:19.273Z,15.23
2022-10-18T08:12:50.209Z,12.33
2022-10-18T08:15:22.809Z,13.40
2022-10-18T08:17:54.079Z,11.10
2022-10-18T08:20:31.326Z,14.30
2022-10-18T08:23:02.117Z,10.93
2022-10-18T08:25:33.340Z,9.90
2022-10-18T08:28:03.766Z,10.65
2022-10-18T08:30:34.212Z,11.00
2022-10-18T08:33:05.506Z,16.20
2022-10-18T08:35:36.059Z,9.55
2022-10-18T08:38:06.661Z,10.30
2022-10-18T08:40:37.529Z,11.03
2022-10-18T08:43:31.901Z,11.05
2022-10-18T08:46:02.651Z,12.95
2022-10-18T08:48:55.859Z,12.55
2022-10-18T08:51:39.438Z,9.88
2022-10-18T08:54:36.614Z,10.68
2022-10-18T08:57:16.099Z,10.18
2022-10-18T08:59:46.647Z,11.85
2022-10-18T09:02:29.650Z,10.03
2022-10-18T09:05:26.409Z,10.13
2022-10-18T09:08:20.291Z,10.07
2022-10-18T09:11:22.652Z,10.15
2022-10-18T09:13:58.760Z,9.43
2022-10-18T09:16:51.414Z,8.82
2022-10-18T09:20:10.335Z,11.07
2022-10-18T09:22:43.402Z,11.20
2022-10-18T09:25:19.363Z,11.27
2022-10-18T09:27:57.195Z,13.45
2022-10-18T09:30:38.181Z,11.48
2022-10-18T09:35:58.026Z,12.25
2022-10-18T09:38:37.592Z,11.95
2022-10-18T09:41:24.506Z,16.00
2022-10-18T09:44:25.572Z,14.20
2022-10-18T09:47:12.290Z,17.33
2022-10-18T09:49:53.587Z,20.85
2022-10-18T09:52:47.202Z,11.40
2022-10-18T09:55:26.640Z,11.63
2022-10-18T09:58:02.229Z,11.98
2022-10-18T10:00:54.176Z,13.25
2022-10-18T10:03:27.163Z,13.73
2022-10-18T10:06:12.998Z,19.73
2022-10-18T10:08:45.623Z,26.70
2022-10-18T10:11:41.227Z,17.52
2022-10-18T10:17:06.798Z,19.98
2022-10-18T10:19:37.170Z,16.50
2022-10-18T10:22:13.543Z,27.65
2022-10-18T10:24:58.945Z,31.42
2022-10-18T10:27:47.170Z,26.55
2022-10-18T10:30:28.883Z,20.10
2022-10-18T10:33:16.477Z,24.95
2022-10-18T10:35:53.605Z,21.63
2022-10-18T10:38:29.610Z,29.88
2022-10-18T10:41:01.135Z,19.58
2022-10-18T10:43:39.234Z,21.35
2022-10-18T10:46:14.378Z,16.55
2022-10-18T10:49:27.941Z,13.30
2022-10-18T10:52:09.255Z,20.98
2022-10-18T10:54:51.171Z,15.35
2022-10-18T10:57:27.342Z,19.52
2022-10-18T11:00:00.979Z,24.90
2022-10-18T11:02:34.783Z,18.67
2022-10-18T11:05:47.871Z,15.63
2022-10-18T11:08:24.026Z,21.25
2022-10-18T11:11:03.099Z,17.23
2022-10-18T11:13:49.921Z,11.65
2022-10-18T11:16:55.578Z,8.63
2022-10-18T11:19:56.258Z,16.08
2022-10-18T11:22:29.663Z,21.42
2022-10-18T11:25:00.403Z,21.90
2022-10-18T11:28:17.058Z,27.58
2022-10-18T11:30:47.397Z,36.33
2022-10-18T11:34:06.918Z,38.45
2022-10-18T11:36:33.996Z,24.25
2022-10-18T11:39:35.590Z,23.38
2022-10-18T11:42:31.372Z,29.00
2022-10-18T11:45:07.828Z,19.67
2022-10-18T11:47:42.894Z,23.92
2022-10-18T11:50:34.963Z,20.02
2022-10-18T11:53:25.181Z,19.10
2022-10-18T11:56:14.041Z,24.67
2022-10-18T11:59:09.195Z,14.95
2022-10-18T12:02:22.969Z,12.35
2022-10-18T12:05:25.298Z,16.38
2022-10-18T12:08:14.841Z,11.95
2022-10-18T12:11:04.566Z,16.88
2022-10-18T12:13:48.054Z,10.85
2022-10-18T12:16:45.541Z,10.27
2022-10-18T12:19:31.080Z,10.30
2022-10-18T12:22:15.976Z,10.70
2022-10-18T12:24:46.397Z,9.02
2022-10-18T12:27:18.654Z,10.30
2022-10-18T12:30:00.283Z,12.57
2022-10-18T12:32:42.603Z,13.00
2022-10-18T12:35:25.227Z,9.60
2022-10-18T12:38:07.707Z,9.38
2022-10-18T12:40:45.891Z,11.27
2022-10-18T12:43:39.334Z,9.27
2022-10-18T12:46:16.724Z,15.75
2022-10-18T12:49:05.699Z,8.20
2022-10-18T12:51:36.140Z,8.55
2022-10-18T12:54:11.870Z,8.47
2022-10-18T12:56:44.762Z,8.25
2022-10-18T12:59:18.379Z,8.30
2022-10-18T13:01:54.861Z,7.68
2022-10-18T13:04:34.712Z,9.82
2022-10-18T13:07:35.278Z,12.32
2022-10-18T13:10:13.457Z,10.82
2022-10-18T13:12:48.970Z,6.90
2022-10-18T13:15:40.489Z,10.75
2022-10-18T13:18:34.670Z,8.63
2022-10-18T13:21:22.455Z,8.35
2022-10-18T13:24:17.191Z,9.68
2022-10-18T13:27:24.408Z,7.63
2022-10-18T13:30:19.549Z,9.35
2022-10-18T13:33:18.066Z,6.25
2022-10-18T13:36:22.906Z,18.35
2022-10-18T13:38:58.409Z,7.10
2022-10-18T13:41:35.653Z,8.00
2022-10-18T13:44:41.244Z,6.85
2022-10-18T13:47:33.785Z,7.18
2022-10-18T13:50:26.381Z,7.93
2022-10-18T13:53:09.758Z,7.80
2022-10-18T13:56:04.776Z,11.93
2022-10-18T13:59:18.834Z,8.05
2022-10-18T14:02:30.780Z,7.00
2022-10-18T14:05:31.593Z,15.20
2022-10-18T14:08:26.358Z,11.85
2022-10-18T14:11:11.203Z,17.48
2022-10-18T14:14:15.967Z,8.90
2022-10-18T14:17:03.077Z,8.30
2022-10-18T14:20:06.199Z,6.00
2022-10-18T14:22:49.039Z,7.35
2022-10-18T14:25:44.853Z,6.53
2022-10-18T14:28:27.418Z,6.68
2022-10-18T14:31:22.510Z,6.28
2022-10-18T14:33:58.966Z,10.88
2022-10-18T14:36:50.729Z,10.45
2022-10-18T14:39:28.648Z,6.15
2022-10-18T14:42:00.238Z,17.85
2022-10-18T14:44:36.038Z,10.20
2022-10-18T14:47:22.559Z,6.90
2022-10-18T14:50:02.241Z,6.78
2022-10-18T14:52:38.197Z,8.15
2022-10-18T14:55:28.890Z,5.80
2022-10-18T14:58:01.974Z,5.45
2022-10-18T15:00:38.974Z,7.30
2022-10-18T15:03:17.236Z,6.50
2022-10-18T15:06:10.484Z,5.32
2022-10-18T15:08:49.550Z,5.22
2022-10-18T15:11:21.854Z,5.60
2022-10-18T15:14:11.086Z,5.30
2022-10-18T15:16:48.790Z,5.18
2022-10-18T15:19:20.639Z,4.85
2022-10-18T15:22:03.258Z,4.50
2022-10-18T15:24:45.351Z,4.55
2022-10-18T15:27:32.864Z,4.28
2022-10-18T15:30:16.573Z,4.32
2022-10-18T15:32:57.344Z,4.05
2022-10-18T15:35:35.391Z,5.10
2022-10-18T15:38:30.259Z,3.42
2022-10-18T15:41:02.465Z,3.13
2022-10-18T15:43:34.505Z,3.55
2022-10-18T15:46:07.412Z,3.50
2022-10-18T15:48:42.700Z,2.83
2022-10-18T15:51:49.579Z,2.83
2022-10-18T15:54:33.526Z,3.58
2022-10-18T15:57:11.751Z,2.83
2022-10-18T15:59:54.471Z,3.90
2022-10-18T16:02:26.205Z,3.03
2022-10-18T16:04:56.762Z,4.00
2022-10-18T16:07:27.616Z,2.92
2022-10-18T16:09:58.399Z,3.27
2022-10-18T16:12:28.897Z,2.42
2022-10-18T16:14:59.311Z,2.85
2022-10-18T16:17:29.882Z,3.50
2022-10-18T16:20:00.645Z,4.13
2022-10-18T16:22:33.461Z,4.28
2022-10-18T16:25:07.659Z,2.58
2022-10-18T16:27:38.352Z,2.88
2022-10-18T16:30:15.891Z,4.63
2022-10-18T16:32:47.793Z,2.15
2022-10-18T16:37:48.350Z,3.95
2022-10-18T16:40:26.958Z,4.53
2022-10-18T16:42:57.286Z,2.90
2022-10-18T16:45:28.162Z,2.10
2022-10-18T16:47:58.450Z,2.72
2022-10-18T16:50:31.912Z,2.65
2022-10-18T16:53:03.807Z,2.42
2022-10-18T16:55:35.103Z,1.70
2022-10-18T16:58:05.820Z,2.00
2022-10-18T17:00:36.466Z,2.80
2022-10-18T17:03:07.130Z,2.30
2022-10-18T17:05:38.520Z,7.72
2022-10-18T17:08:09.576Z,2.42
2022-10-18T17:10:40.118Z,1.98
2022-10-18T17:13:10.958Z,1.95
2022-10-18T17:15:43.434Z,2.08
2022-10-18T17:18:21.263Z,2.15
2022-10-18T17:20:52.088Z,4.13
2022-10-18T17:23:22.495Z,3.30
2022-10-18T17:26:05.168Z,2.38
2022-10-18T17:28:39.256Z,2.47
2022-10-18T17:31:09.738Z,2.20
2022-10-18T17:33:40.280Z,2.33
2022-10-18T17:36:10.733Z,2.50
2022-10-18T17:38:41.114Z,2.15
2022-10-18T17:41:13.621Z,3.58
2022-10-18T17:46:15.328Z,3.03
2022-10-18T17:48:45.899Z,3.47
2022-10-18T17:51:18.358Z,4.15
2022-10-18T17:53:48.803Z,2.55
2022-10-18T17:56:19.166Z,2.30
2022-10-18T17:58:52.948Z,2.42
2022-10-18T18:01:24.823Z,2.70
2022-10-18T18:03:59.393Z,2.53
2022-10-18T18:06:40.023Z,2.05
2022-10-18T18:09:14.482Z,3.13
2022-10-18T18:12:14.621Z,2.92
2022-10-18T18:14:45.361Z,2.50
2022-10-18T18:17:18.788Z,2.58
2022-10-18T18:19:51.743Z,3.03
2022-10-18T18:22:22.126Z,2.80
2022-10-18T18:24:52.452Z,2.78
2022-10-18T18:27:23.089Z,2.55
2022-10-18T18:29:53.513Z,2.78
2022-10-18T18:32:23.971Z,4.65
2022-10-18T18:34:54.511Z,2.90
2022-10-18T18:37:25.363Z,2.60
2022-10-18T18:39:55.759Z,3.45
2022-10-18T18:42:26.115Z,7.72
2022-10-18T18:44:56.482Z,7.53
2022-10-18T18:47:28.482Z,4.25
2022-10-18T18:49:59.440Z,6.03
2022-10-18T18:52:30.099Z,3.75
2022-10-18T18:55:00.656Z,4.30
2022-10-18T18:57:31.400Z,5.18
2022-10-18T19:00:01.980Z,10.23
2022-10-18T19:02:32.373Z,4.72
2022-10-18T19:05:03.019Z,4.15
2022-10-18T19:07:33.578Z,5.75
2022-10-18T19:10:04.129Z,4.03
2022-10-18T19:12:34.581Z,5.10
2022-10-18T19:15:05.169Z,4.10
2022-10-18T19:17:35.693Z,5.03
2022-10-18T19:20:07.654Z,5.85
2022-10-18T19:22:39.500Z,3.88
2022-10-18T19:25:10.779Z,4.07
2022-10-18T19:27:41.229Z,3.80
2022-10-18T19:30:13.522Z,3.78
2022-10-18T19:32:44.115Z,4.38
2022-10-18T19:35:14.534Z,7.00
2022-10-18T19:37:44.972Z,7.22
2022-10-18T19:40:15.398Z,3.33
2022-10-18T19:42:46.273Z,3.50
2022-10-18T19:45:16.735Z,3.15
2022-10-18T19:47:47.165Z,4.05
2022-10-18T19:50:17.586Z,2.95
2022-10-18T19:52:48.061Z,3.95
2022-10-18T19:55:19.907Z,2.85
2022-10-18T19:57:50.297Z,3.33
2022-10-18T20:00:21.256Z,3.65
2022-10-18T20:02:51.711Z,3.38
2022-10-18T20:05:22.551Z,3.67
2022-10-18T20:07:52.898Z,6.00
2022-10-18T20:10:23.340Z,3.03
2022-10-18T20:12:53.756Z,3.58
2022-10-18T20:15:24.110Z,2.58
2022-10-18T20:17:54.643Z,2.95
2022-10-18T20:20:25.008Z,3.30
2022-10-18T20:22:55.434Z,2.88
2022-10-18T20:25:26.330Z,3.45
2022-10-18T20:27:56.633Z,2.90
2022-10-18T20:30:27.381Z,2.70
2022-10-18T20:32:57.809Z,2.97
2022-10-18T20:35:28.178Z,2.72
2022-10-18T20:37:58.628Z,2.70
2022-10-18T20:40:29.007Z,2.35
2022-10-18T20:43:03.619Z,3.15
2022-10-18T20:45:34.607Z,3.78
2022-10-18T20:48:05.718Z,2.50
2022-10-18T20:50:36.174Z,3.00
2022-10-18T20:53:06.515Z,2.90
2022-10-18T20:55:40.066Z,2.75
2022-10-18T20:58:11.066Z,2.90
2022-10-18T21:00:41.537Z,2.80
2022-10-18T21:05:47.040Z,3.03
2022-10-18T21:08:17.481Z,3.15
2022-10-18T21:10:47.794Z,2.85
2022-10-18T21:13:18.124Z,2.50
2022-10-18T21:15:56.137Z,5.95
2022-10-18T21:18:31.728Z,6.53
2022-10-18T21:21:19.340Z,3.05
2022-10-18T21:23:50.114Z,5.45
2022-10-18T21:26:28.338Z,3.25
2022-10-18T21:29:01.212Z,2.70
2022-10-18T21:31:37.520Z,2.50
2022-10-18T21:34:16.661Z,3.05
2022-10-18T21:36:48.498Z,3.08
2022-10-18T21:41:57.561Z,3.17
2022-10-18T21:44:27.939Z,5.28
2022-10-18T21:46:58.644Z,3.97
2022-10-18T21:49:30.659Z,5.60
2022-10-18T21:52:04.502Z,2.78
2022-10-18T21:54:34.877Z,3.20
2022-10-18T21:57:05.278Z,2.45
2022-10-18T21:59:35.665Z,3.08
2022-10-18T22:02:06.403Z,5.90
2022-10-18T22:04:37.584Z,2.67
2022-10-18T22:07:08.024Z,2.72
2022-10-18T22:09:38.461Z,2.75
2022-10-18T22:12:10.843Z,5.28
2022-10-18T22:14:41.487Z,2.88
2022-10-18T22:17:11.916Z,4.90
2022-10-18T22:19:44.494Z,3.03
2022-10-18T22:24:45.526Z,2.65
2022-10-18T22:27:15.936Z,3.22
2022-10-18T22:29:46.408Z,3.20
2022-10-18T22:32:17.231Z,6.85
2022-10-18T22:34:47.660Z,5.03
2022-10-18T22:37:18.101Z,4.85
2022-10-18T22:39:48.661Z,7.65
2022-10-18T22:42:18.991Z,3.65
2022-10-18T22:44:49.327Z,3.60
2022-10-18T22:47:19.782Z,3.75
2022-10-18T22:49:50.224Z,8.27
2022-10-18T22:52:20.751Z,9.70
2022-10-18T22:54:51.076Z,9.35
2022-10-18T22:57:21.467Z,3.85
2022-10-18T22:59:51.852Z,4.72
2022-10-18T23:02:22.226Z,10.02
2022-10-18T23:04:52.909Z,3.97
2022-10-18T23:07:23.807Z,4.00
2022-10-18T23:09:54.253Z,7.88
2022-10-18T23:12:24.659Z,4.07
2022-10-18T23:14:55.468Z,3.45
2022-10-18T23:17:25.858Z,9.15
2022-10-18T23:19:56.318Z,3.58
2022-10-18T23:22:26.707Z,3.72
2022-10-18T23:24:57.366Z,7.60
2022-10-18T23:27:27.815Z,3.83
2022-10-18T23:29:58.553Z,4.00
2022-10-18T23:32:29.578Z,8.27
2022-10-18T23:34:59.984Z,7.50
2022-10-18T23:37:30.425Z,8.93
2022-10-18T23:40:01.427Z,15.10
2022-10-18T23:42:32.263Z,13.27
2022-10-18T23:45:02.896Z,10.70
2022-10-18T23:47:34.087Z,12.18
2022-10-18T23:50:04.980Z,13.27
2022-10-18T23:52:35.493Z,17.33
2022-10-18T23:55:06.369Z,19.15
2022-10-18T23:57:38.771Z,16.55
